Tiempo atmosférico en la estación meteorológica de Villanueva De Los Infantes, Ciudad Real (870 m.)



Fecha
DESCASC
Temp. máxima en grados centígrados (hora)
DESCASC
Temp. mínima en grados centígrados (hora)
DESCASC
Temp. media en grados centígrados
DESCASC
Racha de viento máxima en m/sg (hora)
DESCASC
Velocidad máxima media en intervalos de 10 minutos(hora)
DESCASC
Precipitaciones diarias en mm
DESCASC
Precipitaciones de 00:00 a 06:00 en mm
DESCASC
Precipitaciones de 06:00 a 12:00 en mm
DESCASC
Precipitaciones de 12:00 a 18:00 en mm
DESCASC
Precipitaciones de 18:00 a 24:00 en mm
DESCASC
22-12-2019 -- (--) -- (--) -- -- (--) -- (--) -- -- -- 0 0
19-12-2019 -- (--) -- (--) -- -- (--) -- (--) -- -- -- 2.2 0.6
03-01-2020 7.2 (13:40) 2.9 (00:00) 5 4.44 (21:50) 2.78 (21:20) 0 0 0 0 0
17-01-2020 11.9 (15:10) 3.3 (00:00) 7.6 8.61 (13:40) 5.56 (11:20) 0 0 0 0 0
16-01-2020 14.4 (15:40) 3.1 (00:00) 8.7 7.78 (17:40) 4.72 (17:10) 0 0 0 0 0
15-01-2020 13.4 (15:50) 0.2 (00:00) 6.8 9.44 (15:30) 5.28 (15:30) 0 0 0 0 0
14-01-2020 10.3 (15:30) -0.4 (00:00) 5 6.11 (14:50) 3.89 (18:00) 0 0 0 0 0
13-01-2020 11.5 (15:50) 0.3 (00:00) 5.9 6.94 (15:20) 5 (00:10) 0 0 0 0 0
12-01-2020 10.6 (15:50) 2.3 (00:00) 6.5 6.39 (01:40) 5.28 (23:59) 0 0 0 0 0
11-01-2020 10.7 (15:30) -0.5 (-00:0) 5.1 9.72 (13:40) 6.67 (06:40) 0 0 0 0 0
10-01-2020 9.1 (15:10) 0.8 (00:00) 5 12.22 (14:20) 8.61 (13:50) 0 0 0 0 0
09-01-2020 13.4 (15:40) 2.7 (00:00) 8 7.5 (14:10) 3.61 (14:20) 0 0 0 0 0
08-01-2020 14.4 (15:00) 5.2 (00:00) 9.8 5.83 (20:20) 4.44 (20:20) 0 0 0 0 0
07-01-2020 14 (15:30) 3 (00:00) 8.5 6.67 (04:00) 6.11 (04:00) 0 0 0 0 0
06-01-2020 12.4 (15:50) 3.7 (00:00) 8 4.17 (14:20) 2.5 (14:40) 0 0 0 0 0
05-01-2020 13 (15:30) -0.7 (-00:0) 6.2 6.39 (21:00) 5.28 (01:10) 0 0 0 0 0
04-01-2020 10.7 (14:50) 1.2 (00:00) 5.9 6.94 (08:40) 5.28 (20:30) 0 0 0 0 0
02-01-2020 15.5 (14:40) 4.3 (00:00) 9.9 4.17 (11:40) 2.78 (11:40) 0 0 0 0 0
01-01-2020 14 (15:20) 5.3 (00:00) 9.7 3.33 (23:20) 2.22 (23:10) 0 0 0 0 0
31-12-2019 13 (14:50) 3.3 (00:00) 8.1 3.89 (16:20) 2.5 (10:20) 0 0 0 0 0
30-12-2019 -- (--) -- (--) -- -- (--) -- (--) -- 0 0 -- 0
29-12-2019 15.7 (14:20) 3.8 (00:00) 9.7 8.89 (07:30) 8.61 (07:30) 0 0 0 0 0
28-12-2019 20.2 (14:00) 5.6 (00:00) 12.9 13.89 (09:40) 9.72 (10:10) 0 0 0 0 0
27-12-2019 17.2 (15:20) 6.2 (00:00) 11.7 12.22 (01:40) 8.06 (00:20) 0 0 0 0 0
26-12-2019 14.6 (13:50) 8.1 (00:00) 11.4 8.61 (23:59) 6.94 (23:59) 0 0 0 0 0
25-12-2019 18.8 (14:30) 7 (00:00) 12.9 9.72 (01:40) 8.06 (00:40) 0 0 0 0 0
24-12-2019 17.9 (15:00) 7.3 (00:00) 12.6 10.28 (21:40) 8.33 (20:00) 0 0 0 0 0
23-12-2019 13.5 (15:10) 6.3 (00:00) 9.9 7.5 (05:10) 5.28 (00:40) 0 0 0 0 0
21-12-2019 -- (--) -- (--) -- -- (--) -- (--) -- 4.8 3 0.4 --
20-12-2019 13.2 (17:30) 11.1 (00:00) 12.2 26.39 (01:40) 17.5 (04:30) 11.4 3.6 4.6 0 3.2

Gráficas

Temp. máximas Temp. mínimas Temp. medias Precipitaciones Rachas de viento máximas Velocidades máximas media en intervalos de 10 minutos

Datos horarios

Fecha y hora oficial Temperatura (ºC) Velocidad del viento (km/h) Dirección del viento Racha (km/h) Dirección de racha Precipitación (mm) Presión (hPa) Tendencia (hPa) Humedad (%)
2020-01-17 23:00:00 5.6 5 Sur 7 Sur 0 -- -- 81
2020-01-17 22:00:00 6 5 Sudoeste 10 Sur 0 -- -- 80
2020-01-17 21:00:00 6.6 3 Oeste 4 Sudoeste 0 -- -- 78
2020-01-17 20:00:00 6.8 2 Norte 7 Norte 0 -- -- 75
2020-01-17 19:00:00 7.3 4 Norte 16 Noroeste 0 -- -- 73
2020-01-17 18:00:00 9.2 9 Noroeste 19 Noroeste 0 -- -- 69
2020-01-17 17:00:00 10.3 12 Noroeste 21 Noroeste 0 -- -- 65
2020-01-17 16:00:00 10.7 15 Noroeste 31 Oeste 0 -- -- 64
2020-01-17 15:00:00 11.8 19 Oeste 29 Noroeste 0 -- -- 59
2020-01-17 14:00:00 10.6 17 Noroeste 31 Oeste 0 -- -- 65
2020-01-17 13:00:00 9.8 14 Oeste 30 Oeste 0 -- -- 73
2020-01-17 12:00:00 9.3 16 Oeste 29 Oeste 0 -- -- 78
2020-01-17 11:00:00 8.1 17 Sudoeste 28 Sudoeste 0 -- -- 81
2020-01-17 10:00:00 6.8 14 Sudoeste 22 Sudoeste 0 -- -- 83
2020-01-17 09:00:00 5.9 14 Sudoeste 20 Oeste 0 -- -- 79
2020-01-17 08:00:00 5.5 13 Sudoeste 20 Sudoeste 0 -- -- 78
2020-01-17 07:00:00 6.1 12 Sudoeste 26 Sudoeste 0 -- -- 74
2020-01-17 06:00:00 5.7 12 Sudoeste 24 Sudoeste 0 -- -- 74
2020-01-17 05:00:00 4.8 10 Sudoeste 16 Sudoeste 0 -- -- 76
2020-01-17 04:00:00 3.9 6 Sur 14 Sur 0 -- -- 77
2020-01-17 03:00:00 3.7 9 Sudoeste 17 Sudoeste 0 -- -- 75
2020-01-17 02:00:00 3.3 9 Sudoeste 14 Sur 0 -- -- 75
2020-01-17 01:00:00 4.1 10 Sudoeste 18 Sudoeste 0 -- -- 70
2020-01-17 00:00:00 4.3 10 Sur 13 Sur 0 -- -- 70
2020-01-16 23:00:00 4.4 9 Sur 15 Sur 0 -- -- 68
2020-01-16 22:00:00 4.9 8 Sur 14 Sur 0 -- -- 65
2020-01-16 21:00:00 5.7 5 Sur 12 Sur 0 -- -- 61
2020-01-16 20:00:00 7.4 7 Sudoeste 17 Sudoeste 0 -- -- 56
2020-01-16 19:00:00 8.9 10 Sudoeste 18 Sudoeste 0 -- -- 51
2020-01-16 18:00:00 11.2 12 Sudoeste 28 Sudoeste 0 -- -- 48
2020-01-16 17:00:00 12.9 15 Sudoeste 24 Sudoeste 0 -- -- 44
2020-01-16 16:00:00 14.4 11 Sudoeste 26 Sudoeste 0 -- -- 43
2020-01-16 15:00:00 14.3 14 Sudoeste 24 Sudoeste 0 -- -- 46
2020-01-16 14:00:00 13.7 13 Oeste 23 Sudoeste 0 -- -- 50
2020-01-16 13:00:00 12.3 10 Oeste 19 Sudoeste 0 -- -- 60
2020-01-16 12:00:00 9.9 8 Sudoeste 14 Sudoeste 0 -- -- 60
2020-01-16 11:00:00 7.8 7 Sur 11 Sur 0 -- -- 73
2020-01-16 10:00:00 5.7 6 Sudeste 12 Sudeste 0 -- -- 76
2020-01-16 09:00:00 3.5 5 Sudeste 9 Sudeste 0 -- -- 77
2020-01-16 08:00:00 3.3 4 Sudeste 9 Sur 0 -- -- 75
2020-01-16 07:00:00 3.4 5 Sudeste 9 Sudeste 0 -- -- 75
2020-01-16 06:00:00 3.6 5 Sur 10 Sur 0 -- -- 76
2020-01-16 05:00:00 4.1 5 Sudeste 10 Sur 0 -- -- 76
2020-01-16 04:00:00 3.7 6 Sudeste 11 Sur 0 -- -- 78
2020-01-16 03:00:00 3.9 5 Sur 10 Sudeste 0 -- -- 78
2020-01-16 02:00:00 3.9 5 Sudeste 10 Sur 0 -- -- 76
2020-01-16 01:00:00 3.9 6 Sur 10 Sur 0 -- -- 75
2020-01-16 00:00:00 4.8 8 Sur 10 Sur 0 -- -- 73
2020-01-15 23:00:00 4.3 5 Sur 10 Sur 0 -- -- 76
2020-01-15 22:00:00 4.6 5 Sur 9 Sudeste 0 -- -- 73
2020-01-15 21:00:00 6.1 4 Sur 10 Sudoeste 0 -- -- 72
2020-01-15 20:00:00 7.6 6 Sudoeste 15 Sudoeste 0 -- -- 67
2020-01-15 19:00:00 9 8 Sudoeste 17 Sudoeste 0 -- -- 63
2020-01-15 18:00:00 10.6 9 Sudoeste 19 Oeste 0 -- -- 56
2020-01-15 17:00:00 11.9 11 Oeste 27 Sudoeste 0 -- -- 49
2020-01-15 16:00:00 13.3 17 Oeste 34 Oeste 0 -- -- 43
2020-01-15 15:00:00 12.9 18 Oeste 30 Oeste 0 -- -- 46
2020-01-15 14:00:00 12.4 17 Sudoeste 26 Sudoeste 0 -- -- 55
2020-01-15 13:00:00 10.3 16 Sudoeste 23 Sudoeste 0 -- -- 64
2020-01-15 12:00:00 8.5 13 Sudoeste 27 Sudoeste 0 -- -- 75
2020-01-15 11:00:00 5.7 14 Sur 24 Sur 0 -- -- 85
2020-01-15 10:00:00 2.3 5 Sur 12 Sur 0 -- -- 95
2020-01-15 09:00:00 0.6 4 Sur 10 Sur 0 -- -- 94
2020-01-15 08:00:00 0.7 5 Sur 13 Sur 0 -- -- 92
2020-01-15 07:00:00 0.7 9 Sudeste 15 Sudeste 0 -- -- 93
2020-01-15 06:00:00 0.7 7 Sur 14 Sur 0 -- -- 91
2020-01-15 05:00:00 1.2 4 Sur 12 Sur 0 -- -- 91
2020-01-15 04:00:00 1.3 6 Sur 13 Sur 0 -- -- 92
2020-01-15 03:00:00 1.1 9 Sur 16 Sur 0 -- -- 91
2020-01-15 02:00:00 1 10 Sur 15 Sur 0 -- -- 91
2020-01-15 01:00:00 1 6 Sur 12 Sur 0 -- -- 90
2020-01-15 00:00:00 1 6 Sur 12 Sur 0 -- -- 88
2020-01-14 23:00:00 1.3 5 Sur 13 Sur 0 -- -- 86
2020-01-14 22:00:00 2.3 10 Sur 15 Sur 0 -- -- 84
2020-01-14 21:00:00 3 11 Sur 17 Sur 0 -- -- 82
2020-01-14 20:00:00 4.1 8 Sudoeste 16 Sudoeste 0 -- -- 79
2020-01-14 19:00:00 5.4 9 Sudoeste 22 Sudoeste 0 -- -- 74
2020-01-14 18:00:00 7.3 14 Sudoeste 22 Sudoeste 0 -- -- 71
2020-01-14 17:00:00 8.8 8 Oeste 18 Oeste 0 -- -- 58
2020-01-14 16:00:00 9.9 8 Oeste 21 Oeste 0 -- -- 51
2020-01-14 15:00:00 9.9 12 Oeste 22 Oeste 0 -- -- 47
2020-01-14 14:00:00 9.1 8 Oeste 21 Sudoeste 0 -- -- 57
2020-01-14 13:00:00 7.9 9 Oeste 15 Oeste 0 -- -- 61
2020-01-14 12:00:00 5.5 5 Sudoeste 10 Sur 0 -- -- 75
2020-01-14 11:00:00 3.5 4 Sur 9 Sur 0 -- -- 88
2020-01-14 10:00:00 1.1 4 Sur 10 Sur 0 -- -- 94
2020-01-14 09:00:00 0.1 6 Sur 12 Sur 0 -- -- 94
2020-01-14 08:00:00 -0.1 6 Sur 9 Sur 0 -- -- 93
2020-01-14 07:00:00 -0.2 6 Sur 9 Sur 0 -- -- 92
2020-01-14 06:00:00 0.1 6 Sur 10 Sur 0 -- -- 92
2020-01-14 05:00:00 -0.2 5 Sur 9 Sur 0 -- -- 90
2020-01-14 04:00:00 0.1 5 Sur 10 Sur 0 -- -- 89
2020-01-14 03:00:00 0.2 6 Sur 9 Sur 0 -- -- 89
2020-01-14 02:00:00 0.4 4 Sur 9 Sur 0 -- -- 87
2020-01-14 01:00:00 0.2 5 Sur 12 Sur 0 -- -- 83
2020-01-14 00:00:00 1.2 6 Sur 10 Sur 0 -- -- 82
2020-01-13 23:00:00 2.5 9 Sudoeste 12 Sudoeste 0 -- -- 80
2020-01-13 22:00:00 3 6 Oeste 12 Sudoeste 0 -- -- 79
2020-01-13 21:00:00 2.8 7 Sur 10 Sur 0 -- -- 76
2020-01-13 20:00:00 4.8 5 Sudoeste 10 Sudoeste 0 -- -- 70
2020-01-13 19:00:00 6.3 4 Sudoeste 12 Sudoeste 0 -- -- 66
2020-01-13 18:00:00 8 7 Sudoeste 16 Sudoeste 0 -- -- 61
2020-01-13 17:00:00 10 10 Sudoeste 21 Sudoeste 0 -- -- 57
2020-01-13 16:00:00 11.3 15 Sudoeste 25 Sudoeste 0 -- -- 53
2020-01-13 15:00:00 10.7 12 Oeste 22 Oeste 0 -- -- 52
2020-01-13 14:00:00 10 12 Oeste 22 Oeste 0 -- -- 51
2020-01-13 13:00:00 9.2 13 Oeste 21 Oeste 0 -- -- 56
2020-01-13 12:00:00 7.3 13 Sudoeste 18 Sudoeste 0 -- -- 63
2020-01-13 11:00:00 5.4 10 Sudoeste 14 Sudoeste 0 -- -- 67
2020-01-13 10:00:00 2.5 3 Sur 8 Sur 0 -- -- 70
2020-01-13 09:00:00 2.1 4 Sur 6 Sur 0 -- -- 66
2020-01-13 08:00:00 2.1 5 Sur 7 Sur 0 -- -- 65
2020-01-13 07:00:00 0.4 5 Sur 8 Sur 0 -- -- 68
2020-01-13 06:00:00 0.8 4 Sur 8 Sur 0 -- -- 65
2020-01-13 05:00:00 1.5 5 Sur 8 Sur 0 -- -- 62
2020-01-13 04:00:00 1.9 5 Sudeste 7 Sudeste 0 -- -- 60
2020-01-13 03:00:00 1.7 7 Sudeste 15 Sudeste 0 -- -- 61
2020-01-13 02:00:00 2.5 15 Este 23 Este 0 -- -- 65
2020-01-13 01:00:00 2.7 10 Este 19 Este 0 -- -- 66
2020-01-13 00:00:00 2.8 19 Este 21 Este 0 -- -- 65
2020-01-12 23:00:00 2.9 17 Este 21 Este 0 -- -- 64
2020-01-12 22:00:00 3.6 9 Este 23 Este 0 -- -- 61
2020-01-12 21:00:00 3.7 14 Este 18 Este 0 -- -- 60
2020-01-12 20:00:00 4.7 7 Nordeste 9 Nordeste 0 -- -- 57
2020-01-12 19:00:00 6.2 4 Norte 8 Norte 0 -- -- 51
2020-01-12 18:00:00 7.8 4 Norte 12 Norte 0 -- -- 46
2020-01-12 17:00:00 9.2 6 Norte 11 Noroeste 0 -- -- 46
2020-01-12 16:00:00 10.4 5 Noroeste 11 Noroeste 0 -- -- 43
2020-01-12 15:00:00 10 3 Noroeste 13 Noroeste 0 -- -- 44
2020-01-12 14:00:00 9.7 6 Noroeste 13 Noroeste 0 -- -- 44
2020-01-12 13:00:00 8.8 4 Noroeste 10 Norte 0 -- -- 48
2020-01-12 12:00:00 7.2 3 Noroeste 8 Norte 0 -- -- 54
2020-01-12 11:00:00 5.6 2 Este 7 Este 0 -- -- 56
2020-01-12 10:00:00 3.6 4 Este 6 Este 0 -- -- 67
2020-01-12 09:00:00 2.9 2 Sudeste -- -- 0 -- -- 59
2020-01-12 08:00:00 3 4 Nordeste 4 Nordeste 0 -- -- 58
2020-01-12 07:00:00 2.8 0 Calma 3 Este 0 -- -- 59
2020-01-12 06:00:00 3.9 3 Este -- -- 0 -- -- 56
2020-01-12 05:00:00 3.1 3 Este 12 Este 0 -- -- 63
2020-01-12 04:00:00 2.6 12 Este 18 Este 0 -- -- 74
2020-01-12 03:00:00 2.8 14 Este 22 Este 0 -- -- 73
2020-01-12 02:00:00 3 11 Este 23 Este 0 -- -- 72
2020-01-12 01:00:00 3.1 8 Este 15 Este 0 -- -- 72
2020-01-12 00:00:00 2.3 12 Este 19 Este 0 -- -- 74
2020-01-11 23:00:00 2.4 15 Este 19 Este 0 -- -- 73
2020-01-11 22:00:00 2.9 16 Este 19 Este 0 -- -- 71
2020-01-11 21:00:00 3 11 Nordeste 15 Nordeste 0 -- -- 71
2020-01-11 20:00:00 4.3 10 Nordeste 18 Este 0 -- -- 67
2020-01-11 19:00:00 5.1 15 Este 19 Este 0 -- -- 63
2020-01-11 18:00:00 7.9 13 Este 19 Este 0 -- -- 52
2020-01-11 17:00:00 9.8 13 Este 20 Este 0 -- -- 45
2020-01-11 16:00:00 10.4 11 Este 24 Este 0 -- -- 43
2020-01-11 15:00:00 10.5 17 Este 29 Este 0 -- -- 43
2020-01-11 14:00:00 10.1 16 Este 35 Este 0 -- -- 50
2020-01-11 13:00:00 8.8 15 Este 26 Este 0 -- -- 60
2020-01-11 12:00:00 7.1 16 Este 23 Este 0 -- -- 70
2020-01-11 11:00:00 4.7 13 Este 23 Este 0 -- -- 78
2020-01-11 10:00:00 2.5 19 Este 28 Este 0 -- -- 79
2020-01-11 09:00:00 0.4 23 Este 27 Este 0 -- -- 83
2020-01-11 08:00:00 -0.1 18 Este 24 Este 0 -- -- 85
2020-01-11 07:00:00 0.2 22 Este 27 Este 0 -- -- 83
2020-01-11 06:00:00 0 23 Este 31 Este 0 -- -- 84
2020-01-11 05:00:00 -0.5 16 Este 20 Este 0 -- -- 85
2020-01-11 04:00:00 1 19 Este 21 Este 0 -- -- 79
2020-01-11 03:00:00 1.4 12 Este 22 Este 0 -- -- 77
2020-01-11 02:00:00 1.1 18 Este 21 Este 0 -- -- 79
2020-01-11 01:00:00 0.7 15 Este 21 Este 0 -- -- 78
2020-01-11 00:00:00 0.8 2 Nordeste 10 Nordeste 0 -- -- 78
2020-01-10 23:00:00 1.7 8 Nordeste 21 Este 0 -- -- 74
2020-01-10 22:00:00 2.2 13 Este 17 Este 0 -- -- 72
2020-01-10 21:00:00 3.4 11 Este 19 Este 0 -- -- 67
2020-01-10 20:00:00 3.9 13 Nordeste 19 Nordeste 0 -- -- 66
2020-01-10 19:00:00 4.6 8 Nordeste 13 Norte 0 -- -- 66
2020-01-10 18:00:00 7.3 10 Norte 30 Nordeste 0 -- -- 57
2020-01-10 17:00:00 8.4 19 Nordeste 33 Nordeste 0 -- -- 54
2020-01-10 16:00:00 8.7 20 Nordeste 33 Nordeste 0 -- -- 53
2020-01-10 15:00:00 9 23 Nordeste 44 Nordeste 0 -- -- 51
2020-01-10 14:00:00 8.6 30 Nordeste 41 Nordeste 0 -- -- 54
2020-01-10 13:00:00 8.4 19 Nordeste 27 Nordeste 0 -- -- 60
2020-01-10 12:00:00 6.7 17 Nordeste 25 Norte 0 -- -- 73
2020-01-10 11:00:00 5.3 15 Nordeste 22 Nordeste 0 -- -- 83
2020-01-10 10:00:00 3.8 9 Nordeste 15 Nordeste 0 -- -- 92
2020-01-10 09:00:00 3.6 10 Nordeste 14 Nordeste 0 -- -- 96
2020-01-10 08:00:00 3.7 0 Calma 4 Sur 0 -- -- 97
2020-01-10 07:00:00 3.5 3 Sur 6 Sur 0 -- -- 97
2020-01-10 06:00:00 3.4 3 Sur 10 Sur 0 -- -- 97
2020-01-10 05:00:00 3.1 4 Sur 9 Sur 0 -- -- 97
2020-01-10 04:00:00 2.4 9 Sur 13 Sur 0 -- -- 95
2020-01-10 03:00:00 2 5 Sur 10 Sur 0 -- -- 94
2020-01-10 02:00:00 2.1 5 Sur 13 Sur 0 -- -- 91
2020-01-10 01:00:00 2.3 5 Sur 9 Sur 0 -- -- 91
2020-01-10 00:00:00 3.5 8 Sur 11 Sur 0 -- -- 87
2020-01-09 23:00:00 4.6 3 Noroeste 12 Sudoeste 0 -- -- 87
2020-01-09 22:00:00 4.8 9 Sudoeste 13 Sur 0 -- -- 87
2020-01-09 21:00:00 4.9 9 Sur 15 Sur 0 -- -- 84
2020-01-09 20:00:00 5.4 6 Sur 12 Sur 0 -- -- 79
2020-01-09 19:00:00 8.5 5 Sudoeste 13 Oeste 0 -- -- 71
2020-01-09 18:00:00 10.4 7 Oeste 17 Oeste 0 -- -- 63
2020-01-09 17:00:00 11.7 8 Noroeste 17 Oeste 0 -- -- 52
2020-01-09 16:00:00 12.9 9 Oeste 17 Oeste 0 -- -- 47
2020-01-09 15:00:00 12.5 8 Oeste 27 Oeste 0 -- -- 48
2020-01-09 14:00:00 11.9 11 Noroeste 19 Noroeste 0 -- -- 51
2020-01-09 13:00:00 11.4 12 Oeste 18 Oeste 0 -- -- 56
2020-01-09 12:00:00 9 12 Sudoeste 19 Sudoeste 0 -- -- 64
2020-01-09 11:00:00 7.2 10 Sudoeste 18 Sur 0 -- -- 69
2020-01-09 10:00:00 4.4 5 Sur 10 Sur 0 -- -- 78
2020-01-09 09:00:00 3.2 7 Sur 12 Sur 0 -- -- 78
2020-01-09 08:00:00 3 5 Sur 12 Sur 0 -- -- 77
2020-01-09 07:00:00 2.7 6 Sur 10 Sudeste 0 -- -- 77
2020-01-09 06:00:00 3.3 7 Sur 10 Sudeste 0 -- -- 75
2020-01-09 05:00:00 4 5 Sur 9 Sur 0 -- -- 73
2020-01-09 04:00:00 4.2 6 Sur 9 Sur 0 -- -- 73
2020-01-09 03:00:00 3.9 7 Sur 12 Sudeste 0 -- -- 73
2020-01-09 02:00:00 4.1 7 Sur 10 Sudeste 0 -- -- 75
2020-01-09 01:00:00 4.8 5 Sur 9 Sur 0 -- -- 74
2020-01-09 00:00:00 5.4 6 Sur 9 Sur 0 -- -- 72
2020-01-08 23:00:00 5.8 5 Sur 9 Sur 0 -- -- 68
2020-01-08 22:00:00 6 5 Sur 9 Sudeste 0 -- -- 68
2020-01-08 21:00:00 6.3 6 Sudeste 21 Este 0 -- -- 67
2020-01-08 20:00:00 8.1 5 Nordeste 15 Este 0 -- -- 61
2020-01-08 19:00:00 8.7 6 Nordeste 10 Nordeste 0 -- -- 63
2020-01-08 18:00:00 10.9 8 Norte 13 Norte 0 -- -- 56
2020-01-08 17:00:00 12.7 9 Norte 16 Noroeste 0 -- -- 50
2020-01-08 16:00:00 14 12 Norte 16 Noroeste 0 -- -- 44
2020-01-08 15:00:00 14.4 8 Norte 17 Nordeste 0 -- -- 40
2020-01-08 14:00:00 13.8 8 Norte 15 Nordeste 0 -- -- 35
2020-01-08 13:00:00 12.4 9 Nordeste 14 Norte 0 -- -- 40
2020-01-08 12:00:00 9.7 8 Este 10 Este 0 -- -- 57
2020-01-08 11:00:00 7.7 4 Nordeste 6 Nordeste 0 -- -- 66
2020-01-08 10:00:00 6.3 4 Este 7 Nordeste 0 -- -- 64
2020-01-08 09:00:00 5.5 0 Calma 5 Nordeste 0 -- -- 60
2020-01-08 08:00:00 5.5 5 Nordeste 7 Nordeste 0 -- -- 72
2020-01-08 07:00:00 5.8 4 Nordeste -- -- 0 -- -- 70
2020-01-08 06:00:00 5.4 3 Nordeste 5 Nordeste 0 -- -- 55
2020-01-08 05:00:00 5.5 6 Nordeste 7 Nordeste 0 -- -- 52
2020-01-08 04:00:00 6 2 Nordeste 3 Nordeste 0 -- -- 49
2020-01-08 03:00:00 5.7 0 Calma -- -- 0 -- -- 55
2020-01-08 02:00:00 6.4 0 Calma 2 Norte 0 -- -- 60
2020-01-08 01:00:00 6.7 2 Nordeste 2 Nordeste 0 -- -- 44
2020-01-08 00:00:00 7.3 3 Nordeste 4 Nordeste 0 -- -- 45
2020-01-07 23:00:00 7.4 0 Calma 2 Nordeste 0 -- -- 44
2020-01-07 22:00:00 7.8 0 Calma 4 Sur 0 -- -- 41
2020-01-07 21:00:00 8 0 Calma 4 Nordeste 0 -- -- 50
2020-01-07 20:00:00 8.8 -- -- -- -- 0 -- -- 49
2020-01-07 19:00:00 9.1 4 Nordeste 6 Norte 0 -- -- 53
2020-01-07 18:00:00 10.4 6 Norte 18 Norte 0 -- -- 49
2020-01-07 17:00:00 12.8 7 Norte 15 Norte 0 -- -- 39
2020-01-07 16:00:00 13.7 8 Norte 14 Noroeste 0 -- -- 40
2020-01-07 15:00:00 13.7 8 Norte 14 Nordeste 0 -- -- 48
2020-01-07 14:00:00 13.1 6 Norte 12 Norte 0 -- -- 53
2020-01-07 13:00:00 11.6 7 Norte 13 Nordeste 0 -- -- 57
2020-01-07 12:00:00 9.4 6 Nordeste 10 Nordeste 0 -- -- 62
2020-01-07 11:00:00 8.1 4 Este 11 Nordeste 0 -- -- 59
2020-01-07 10:00:00 6.1 6 Nordeste 12 Nordeste 0 -- -- 66
2020-01-07 09:00:00 4 10 Nordeste 13 Nordeste 0 -- -- 72
2020-01-07 08:00:00 4.8 7 Nordeste 10 Nordeste 0 -- -- 64
2020-01-07 07:00:00 4.3 4 Nordeste 7 Nordeste 0 -- -- 71
2020-01-07 06:00:00 3 4 Nordeste 17 Este 0 -- -- 75
2020-01-07 05:00:00 4.7 14 Este 22 Este 0 -- -- 72
2020-01-07 04:00:00 3.6 22 Este 24 Este 0 -- -- 72
2020-01-07 03:00:00 4.1 8 Nordeste 10 Nordeste 0 -- -- 64
2020-01-07 02:00:00 5.4 0 Calma 6 Nordeste 0 -- -- 60
2020-01-07 01:00:00 5.7 2 Este 6 Nordeste 0 -- -- 63
2020-01-07 00:00:00 6.2 5 Norte 6 Norte 0 -- -- 63
2020-01-06 23:00:00 6.6 3 Nordeste 5 Nordeste 0 -- -- 64
2020-01-06 22:00:00 6.4 2 Nordeste 5 Nordeste 0 -- -- 67
2020-01-06 21:00:00 6.7 2 Sudoeste 9 Sur 0 -- -- 64
2020-01-06 20:00:00 7.2 3 Sudeste -- -- 0 -- -- 65
2020-01-06 19:00:00 7.8 3 Norte 8 Norte 0 -- -- 63
2020-01-06 18:00:00 9.4 3 Norte 10 Norte 0 -- -- 57
2020-01-06 17:00:00 11.3 6 Norte 10 Norte 0 -- -- 57
2020-01-06 16:00:00 12.1 5 Noroeste 12 Oeste 0 -- -- 50
2020-01-06 15:00:00 12.2 8 Noroeste 15 Oeste 0 -- -- 56
2020-01-06 14:00:00 12 5 Oeste 13 Oeste 0 -- -- 52
2020-01-06 13:00:00 10.5 6 Oeste 10 Oeste 0 -- -- 59
2020-01-06 12:00:00 8.5 3 Sudoeste 6 Sudoeste 0 -- -- 68
2020-01-06 11:00:00 6.8 0 Calma 4 Sur 0 -- -- 79
2020-01-06 10:00:00 5.2 3 Sur 8 Sur 0 -- -- 86